Time;durP1;ratioP1;P1;durP2;ratioP2;P2;SDS_P1;SDS_P2;PMS_P1;PMS_P2;Temp;Humidity;BMP_temperature;BMP_pressure;BME280_temperature;BME280_humidity;BME280_pressure;Samples;Min_cycle;Max_cycle;Signal;HPM_P1;HPM_P2
2021/12/18 00:01:31;;;;;;;25.90;13.80;;;;;;;7.20;100.00;104224.50;5104892;28;20535;-74
2021/12/18 00:03:57;;;;;;;29.83;14.88;;;;;;;7.20;100.00;104224.50;5103646;28;20043;-73
2021/12/18 00:06:27;;;;;;;29.52;14.00;;;;;;;7.20;100.00;104214.03;5110224;28;20034;-74
2021/12/18 00:08:53;;;;;;;30.20;16.30;;;;;;;7.21;100.00;104215.88;5106891;28;20089;-74
2021/12/18 00:11:18;;;;;;;27.10;14.18;;;;;;;7.21;100.00;104213.25;5084497;28;20467;-74
2021/12/18 00:13:43;;;;;;;32.35;16.42;;;;;;;7.21;100.00;104214.16;5116048;28;20122;-74
2021/12/18 00:16:09;;;;;;;38.08;18.00;;;;;;;7.20;100.00;104219.28;5101627;28;20771;-74
2021/12/18 00:18:35;;;;;;;36.50;17.27;;;;;;;7.20;100.00;104220.22;5094195;28;20107;-74
2021/12/18 00:21:02;;;;;;;46.72;18.30;;;;;;;7.21;100.00;104208.03;5103220;28;20028;-74
2021/12/18 00:23:29;;;;;;;37.97;17.60;;;;;;;7.20;100.00;104208.78;5087389;28;20114;-74
2021/12/18 00:25:54;;;;;;;41.42;16.77;;;;;;;7.22;100.00;104213.38;5110305;28;20077;-73
2021/12/18 00:28:20;;;;;;;41.20;17.02;;;;;;;7.22;100.00;104204.63;5078050;28;20483;-74
2021/12/18 00:30:46;;;;;;;43.53;19.48;;;;;;;7.20;100.00;104207.13;5105232;28;20035;-73
2021/12/18 00:33:12;;;;;;;43.83;17.70;;;;;;;7.21;100.00;104213.25;5114660;28;20031;-74
2021/12/18 00:35:37;;;;;;;44.67;17.52;;;;;;;7.22;100.00;104210.75;5105840;28;20064;-74
2021/12/18 00:38:05;;;;;;;38.47;16.25;;;;;;;7.23;100.00;104211.66;5104128;28;20044;-74
2021/12/18 00:40:44;;;;;;;42.40;17.67;;;;;;;7.26;100.00;104206.72;5104024;28;20102;-74
2021/12/18 00:43:24;;;;;;;48.90;16.92;;;;;;;7.24;100.00;104203.03;5104466;28;20080;-74
2021/12/18 00:45:50;;;;;;;33.15;13.60;;;;;;;7.23;100.00;104198.56;5110083;28;20027;-74
2021/12/18 00:48:16;;;;;;;35.92;14.85;;;;;;;7.24;100.00;104196.13;5083612;28;20383;-74
2021/12/18 00:50:42;;;;;;;32.80;12.75;;;;;;;7.22;100.00;104189.81;5098229;28;20024;-74
2021/12/18 00:53:07;;;;;;;30.50;12.48;;;;;;;7.24;100.00;104195.19;5107394;28;20500;-74
2021/12/18 00:55:36;;;;;;;27.63;11.48;;;;;;;7.25;100.00;104194.41;5095563;28;20023;-74
2021/12/18 00:58:02;;;;;;;29.33;11.40;;;;;;;7.23;100.00;104188.09;5081584;28;20111;-74
2021/12/18 01:00:27;;;;;;;21.98;9.93;;;;;;;7.24;100.00;104188.25;5115325;28;20111;-74
2021/12/18 01:02:58;;;;;;;27.13;10.10;;;;;;;7.23;100.00;104189.03;5104230;28;20035;-74
2021/12/18 01:05:25;;;;;;;24.23;9.85;;;;;;;7.22;100.00;104194.16;5109344;28;20051;-74
2021/12/18 01:07:51;;;;;;;21.75;9.93;;;;;;;7.24;100.00;104185.63;5103497;28;20050;-74
2021/12/18 01:12:57;;;;;;;23.75;10.30;;;;;;;7.21;100.00;104181.81;5100908;28;20036;-74
2021/12/18 01:23:22;;;;;;;23.33;9.13;;;;;;;7.22;100.00;104194.16;5102732;28;20119;-74
2021/12/18 01:25:50;;;;;;;15.82;7.38;;;;;;;7.22;100.00;104199.38;5098586;28;20035;-73
2021/12/18 01:28:16;;;;;;;15.43;6.45;;;;;;;7.22;100.00;104186.28;5101122;28;20043;-73
2021/12/18 01:30:41;;;;;;;14.43;5.90;;;;;;;7.21;100.00;104190.59;5113585;28;20036;-74
2021/12/18 01:33:07;;;;;;;16.40;6.32;;;;;;;7.20;100.00;104196.63;5107918;28;20054;-74
2021/12/18 01:35:33;;;;;;;13.32;6.03;;;;;;;7.20;100.00;104187.84;5104517;28;20023;-74
2021/12/18 01:37:59;;;;;;;15.75;6.60;;;;;;;7.21;100.00;104187.06;5098159;28;20056;-74
2021/12/18 01:40:25;;;;;;;13.77;6.38;;;;;;;7.19;100.00;104196.47;5114404;28;20150;-74
2021/12/18 01:43:56;;;;;;;12.48;5.45;;;;;;;7.18;100.00;104197.28;5109011;28;20039;-74
2021/12/18 01:51:24;;;;;;;;;;;;;;;7.24;100.00;104208.28;5104706;28;20043;-74
2021/12/18 01:53:53;;;;;;;7.20;2.95;;;;;;;7.19;100.00;104202.66;5100408;28;19958;-74
2021/12/18 01:56:20;;;;;;;7.43;3.17;;;;;;;7.22;100.00;104199.38;5088994;28;20034;-73
2021/12/18 01:58:46;;;;;;;6.72;2.88;;;;;;;7.19;100.00;104204.34;5113152;28;20032;-74
2021/12/18 02:01:13;;;;;;;4.72;2.65;;;;;;;7.20;100.00;104201.88;5080036;28;20034;-74
2021/12/18 02:03:40;;;;;;;6.97;3.05;;;;;;;7.19;100.00;104204.34;5108388;28;20508;-73
2021/12/18 02:06:06;;;;;;;5.65;2.70;;;;;;;7.16;100.00;104197.16;5079794;28;20740;-73
2021/12/18 02:08:34;;;;;;;7.38;2.75;;;;;;;7.15;100.00;104197.00;5106574;28;20058;-75
2021/12/18 02:11:14;;;;;;;5.97;3.25;;;;;;;7.13;100.00;104194.25;5092828;28;20031;-74
2021/12/18 02:21:57;;;;;;;10.48;4.03;;;;;;;7.16;100.00;104172.66;5097710;28;20050;-73
2021/12/18 02:24:26;;;;;;;9.35;4.20;;;;;;;7.14;100.00;104172.53;5113906;28;20073;-74
2021/12/18 02:26:52;;;;;;;8.27;4.07;;;;;;;7.13;100.00;104177.66;5098237;28;20055;-74
2021/12/18 02:29:17;;;;;;;11.55;4.25;;;;;;;7.13;100.00;104181.16;5107903;28;20112;-74
2021/12/18 02:31:44;;;;;;;9.35;4.68;;;;;;;7.12;100.00;104174.09;5105867;28;20544;-74
2021/12/18 02:34:17;;;;;;;12.30;4.75;;;;;;;7.13;100.00;104172.41;5080912;28;20035;-74
2021/12/18 02:36:47;;;;;;;10.57;4.75;;;;;;;7.14;100.00;104174.25;5101004;28;20039;-74
2021/12/18 02:39:38;;;;;;;10.25;4.93;;;;;;;7.14;100.00;104174.25;5102243;28;20356;-74
2021/12/18 02:42:19;;;;;;;10.52;4.72;;;;;;;7.11;100.00;104173.97;5098186;28;20044;-74
2021/12/18 02:44:45;;;;;;;11.38;4.65;;;;;;;7.13;100.00;104168.06;5092373;28;20028;-74
2021/12/18 02:47:12;;;;;;;10.75;4.97;;;;;;;7.13;100.00;104177.66;5113327;28;20034;-74
2021/12/18 02:49:50;;;;;;;13.52;4.82;;;;;;;7.13;100.00;104177.66;5102584;28;20032;-74
2021/12/18 02:52:17;;;;;;;8.13;4.03;;;;;;;7.11;100.00;104171.34;5113004;28;20081;-74
2021/12/18 02:54:43;;;;;;;9.63;4.40;;;;;;;7.11;100.00;104156.56;5099622;28;20472;-74
2021/12/18 02:57:10;;;;;;;13.52;4.78;;;;;;;7.12;100.00;104153.13;5108483;28;20036;-74
2021/12/18 02:59:45;;;;;;;10.95;4.88;;;;;;;7.11;100.00;104158.25;5088747;28;20107;-74
2021/12/18 03:02:11;;;;;;;7.97;4.05;;;;;;;7.13;100.00;104156.69;5101146;28;20463;-74
2021/12/18 03:04:38;;;;;;;10.95;4.78;;;;;;;7.10;100.00;104154.72;5099858;28;20062;-74
2021/12/18 03:07:06;;;;;;;9.70;4.78;;;;;;;7.11;100.00;104153.94;5109295;28;20024;-74
2021/12/18 03:25:33;;;;;;;10.38;4.72;;;;;;;7.04;100.00;104162.06;5111317;28;20538;-74
2021/12/18 03:28:00;;;;;;;10.25;4.30;;;;;;;7.02;100.00;104156.69;5090556;28;20038;-74
2021/12/18 03:30:26;;;;;;;10.95;4.20;;;;;;;7.01;100.00;104157.50;5112366;28;20034;-74
2021/12/18 03:32:53;;;;;;;12.07;4.70;;;;;;;7.01;100.00;104157.50;5098716;28;20054;-74
2021/12/18 03:35:19;;;;;;;9.73;4.38;;;;;;;7.01;100.00;104156.56;5108947;28;20049;-74
2021/12/18 03:37:45;;;;;;;11.68;4.75;;;;;;;6.98;100.00;104165.06;5098907;28;20063;-74
2021/12/18 03:40:14;;;;;;;10.65;4.85;;;;;;;6.96;100.00;104148.34;5078671;28;20107;-74
2021/12/18 03:42:39;;;;;;;12.68;4.90;;;;;;;6.96;100.00;104148.34;5106206;28;20032;-73
2021/12/18 03:45:07;;;;;;;11.00;5.07;;;;;;;6.94;100.00;104149.91;5106119;28;20103;-74
2021/12/18 03:47:32;;;;;;;9.30;4.88;;;;;;;6.94;100.00;104149.00;5091109;28;20019;-74
2021/12/18 03:49:58;;;;;;;13.15;5.25;;;;;;;6.93;100.00;104145.44;5087804;28;20523;-73
2021/12/18 03:52:24;;;;;;;10.55;5.13;;;;;;;6.92;100.00;104143.63;5108894;28;20034;-74
2021/12/18 03:54:50;;;;;;;13.48;5.45;;;;;;;6.92;100.00;104143.63;5109505;28;20475;-74
2021/12/18 03:57:15;;;;;;;12.00;5.55;;;;;;;6.90;100.00;104134.72;5081504;28;20028;-74
2021/12/18 03:59:44;;;;;;;11.60;5.05;;;;;;;6.90;100.00;104135.66;5102550;28;20035;-74
2021/12/18 04:02:10;;;;;;;13.65;5.25;;;;;;;6.90;100.00;104142.56;5107946;28;20062;-74
2021/12/18 04:04:35;;;;;;;14.77;6.13;;;;;;;6.90;100.00;104145.19;5108491;28;20043;-74
2021/12/18 04:07:01;;;;;;;14.32;7.07;;;;;;;6.87;100.00;104139.69;5111099;28;20031;-74
2021/12/18 04:09:31;;;;;;;11.43;5.65;;;;;;;6.88;100.00;104141.53;5103535;28;20028;-74
2021/12/18 04:11:57;;;;;;;13.60;6.88;;;;;;;6.89;100.00;104138.09;5109224;28;20530;-73
2021/12/18 04:14:23;;;;;;;15.23;6.15;;;;;;;6.86;100.00;104141.41;5095011;28;20043;-74
2021/12/18 04:16:49;;;;;;;15.75;6.28;;;;;;;6.85;100.00;104144.81;5108060;28;20078;-74
2021/12/18 04:19:14;;;;;;;19.10;7.05;;;;;;;6.85;100.00;104143.88;5101232;28;20028;-74
2021/12/18 04:21:40;;;;;;;16.13;6.88;;;;;;;6.84;100.00;104144.69;5090276;28;20065;-74
2021/12/18 04:24:06;;;;;;;17.45;7.55;;;;;;;6.81;100.00;104147.00;5109737;28;20047;-74
2021/12/18 04:26:33;;;;;;;16.88;7.05;;;;;;;6.78;100.00;104154.63;5106924;28;20031;-74
2021/12/18 04:28:59;;;;;;;20.40;7.82;;;;;;;6.78;100.00;104152.00;5107024;28;20032;-74
2021/12/18 04:31:24;;;;;;;19.63;7.93;;;;;;;6.79;100.00;104153.84;5100826;28;20456;-74
2021/12/18 04:33:50;;;;;;;23.83;7.97;;;;;;;6.79;100.00;104156.44;5091462;28;20020;-74
2021/12/18 04:36:15;;;;;;;17.15;7.53;;;;;;;6.73;100.00;104155.13;5111466;28;20044;-74
2021/12/18 04:38:41;;;;;;;18.23;6.90;;;;;;;6.71;100.00;104151.47;5080823;28;20028;-74
2021/12/18 04:41:09;;;;;;;18.58;6.47;;;;;;;6.68;100.00;104155.53;5092596;28;20106;-74
2021/12/18 04:43:35;;;;;;;16.30;6.28;;;;;;;6.65;100.00;104153.56;5084002;28;20105;-74
2021/12/18 04:46:00;;;;;;;20.10;6.20;;;;;;;6.66;100.00;104162.31;5108341;28;20073;-74
2021/12/18 04:48:26;;;;;;;22.17;7.00;;;;;;;6.61;100.00;104164.56;5104444;28;20104;-74
2021/12/18 04:50:51;;;;;;;21.48;6.75;;;;;;;6.57;100.00;104157.22;5101125;28;20847;-74
2021/12/18 04:53:18;;;;;;;21.00;6.40;;;;;;;6.57;100.00;104158.13;5110755;28;20031;-74
2021/12/18 04:55:43;;;;;;;20.88;7.28;;;;;;;6.62;100.00;104158.53;5093274;28;20149;-74
2021/12/18 04:58:09;;;;;;;33.50;7.25;;;;;;;6.60;100.00;104149.63;5095118;28;20057;-74
2021/12/18 05:00:39;;;;;;;40.78;8.93;;;;;;;6.57;100.00;104152.00;5101845;28;20069;-74
2021/12/18 05:03:10;;;;;;;50.08;8.80;;;;;;;6.56;100.00;104163.22;5109833;28;20031;-72
2021/12/18 05:05:36;;;;;;;48.35;9.55;;;;;;;6.57;100.00;104157.22;5091322;28;20094;-73
2021/12/18 05:08:03;;;;;;;41.17;8.70;;;;;;;6.61;100.00;104156.69;5096881;28;20130;-72
2021/12/18 05:10:30;;;;;;;75.18;9.50;;;;;;;6.57;100.00;104165.97;5093833;28;20043;-73
2021/12/18 05:12:55;;;;;;;139.95;12.25;;;;;;;6.56;100.00;104171.09;5081517;28;20372;-72
2021/12/18 05:15:21;;;;;;;118.30;12.20;;;;;;;6.55;100.00;104174.47;5096715;28;20035;-74
2021/12/18 05:17:46;;;;;;;85.63;10.30;;;;;;;6.56;100.00;104165.84;5108524;28;20027;-74
2021/12/18 05:20:12;;;;;;;114.18;11.15;;;;;;;6.53;100.00;104166.50;5086360;28;20531;-73
2021/12/18 05:22:38;;;;;;;83.72;10.07;;;;;;;6.52;100.00;104169.88;5108801;28;20536;-73
2021/12/18 05:25:05;;;;;;;54.95;9.15;;;;;;;6.57;100.00;104178.16;5111776;28;20389;-73
2021/12/18 05:27:31;;;;;;;78.40;11.68;;;;;;;6.58;100.00;104180.91;5105463;28;20053;-73
2021/12/18 05:29:56;;;;;;;38.55;8.73;;;;;;;6.61;100.00;104177.63;5109619;28;20020;-73
2021/12/18 05:32:22;;;;;;;57.92;8.75;;;;;;;6.54;100.00;104173.56;5091973;28;20031;-73
2021/12/18 05:34:47;;;;;;;44.42;9.00;;;;;;;6.56;100.00;104176.31;5107721;28;20103;-73
2021/12/18 05:37:43;;;;;;;49.53;8.50;;;;;;;6.55;100.00;104175.41;5083219;28;20044;-73
2021/12/18 05:40:01;;;;;;;48.80;8.45;;;;;;;6.52;100.00;104179.44;5079658;28;20090;-73
2021/12/18 05:42:27;;;;;;;48.88;9.48;;;;;;;6.50;100.00;104166.25;5080514;28;20032;-73
2021/12/18 05:44:52;;;;;;;51.78;8.48;;;;;;;6.52;100.00;104176.84;5091897;28;20028;-73
2021/12/18 05:47:19;;;;;;;61.17;8.82;;;;;;;6.50;100.00;104170.56;5088968;28;20111;-73
2021/12/18 05:49:44;;;;;;;44.70;8.50;;;;;;;6.53;100.00;104176.06;5102495;28;20094;-73
2021/12/18 05:52:10;;;;;;;43.38;7.88;;;;;;;6.50;100.00;104171.47;5081835;28;20032;-73
2021/12/18 05:54:37;;;;;;;63.15;8.15;;;;;;;6.49;100.00;104168.72;5089515;28;20032;-72
2021/12/18 05:57:04;;;;;;;45.33;7.68;;;;;;;6.49;100.00;104168.72;5078080;28;20477;-73
2021/12/18 05:59:31;;;;;;;59.50;8.13;;;;;;;6.48;100.00;104170.41;5102236;28;20115;-73
2021/12/18 06:02:03;;;;;;;52.58;7.53;;;;;;;6.47;100.00;104165.97;5079874;28;20024;-72
2021/12/18 06:04:28;;;;;;;47.45;7.57;;;;;;;6.50;100.00;104170.56;5079591;28;20027;-73
2021/12/18 06:07:03;;;;;;;50.63;6.43;;;;;;;6.50;100.00;104162.72;5089043;28;20025;-73
2021/12/18 06:09:28;;;;;;;94.53;9.05;;;;;;;6.48;100.00;104156.41;5090731;28;20032;-73
2021/12/18 06:11:54;;;;;;;98.45;9.50;;;;;;;6.47;100.00;104159.81;5085000;28;20031;-73
2021/12/18 06:14:19;;;;;;;55.00;8.48;;;;;;;6.46;100.00;104165.81;5081952;28;20131;-73
2021/12/18 06:16:45;;;;;;;78.85;8.25;;;;;;;6.50;100.00;104160.09;5091269;28;20099;-73
2021/12/18 06:19:11;;;;;;;56.80;8.32;;;;;;;6.48;100.00;104156.41;5083811;28;20021;-73
2021/12/18 06:21:37;;;;;;;58.47;7.78;;;;;;;6.48;100.00;104159.03;5082056;28;20161;-74
2021/12/18 06:24:03;;;;;;;57.70;8.90;;;;;;;6.48;100.00;104148.56;5076399;28;20074;-74
2021/12/18 06:26:29;;;;;;;81.25;8.48;;;;;;;6.50;100.00;104154.88;5076002;28;20082;-74
2021/12/18 06:28:55;;;;;;;67.00;10.23;;;;;;;6.47;100.00;104158.13;5081748;28;20040;-74
2021/12/18 06:31:21;;;;;;;73.85;9.07;;;;;;;6.49;100.00;104158.25;5087013;28;20051;-74
2021/12/18 06:33:46;;;;;;;73.15;8.65;;;;;;;6.46;100.00;104164.13;5081726;28;20469;-73
2021/12/18 06:36:11;;;;;;;70.13;8.68;;;;;;;6.46;100.00;104160.59;5089427;28;20079;-74
2021/12/18 06:38:38;;;;;;;54.33;7.85;;;;;;;6.44;100.00;104160.47;5092125;28;20248;-73
2021/12/18 06:41:04;;;;;;;57.95;8.10;;;;;;;6.44;100.00;104154.31;5111052;28;20356;-74
2021/12/18 06:43:29;;;;;;;116.68;9.90;;;;;;;6.43;100.00;104161.25;5113418;28;20053;-74
2021/12/18 06:45:56;;;;;;;87.63;8.80;;;;;;;6.43;100.00;104157.72;5109432;28;20085;-74
2021/12/18 06:48:21;;;;;;;38.97;8.00;;;;;;;6.43;100.00;104160.31;5088160;28;20043;-74
2021/12/18 06:50:47;;;;;;;41.33;6.35;;;;;;;6.43;100.00;104163.88;5100599;28;20494;-73
2021/12/18 06:53:12;;;;;;;36.75;6.25;;;;;;;6.40;100.00;104156.69;5091317;28;20023;-73
2021/12/18 06:55:39;;;;;;;55.55;7.20;;;;;;;6.40;100.00;104151.44;5110181;28;20034;-73
2021/12/18 06:58:04;;;;;;;62.08;7.50;;;;;;;6.39;100.00;104157.44;5099043;28;20043;-73
2021/12/18 07:00:33;;;;;;;77.00;6.88;;;;;;;6.38;100.00;104159.94;5105509;28;20043;-73
2021/12/18 07:02:58;;;;;;;54.10;6.53;;;;;;;6.36;100.00;104161.50;5104186;28;20028;-73
2021/12/18 07:05:24;;;;;;;66.57;7.25;;;;;;;6.35;100.00;104167.53;5104907;28;20032;-73
2021/12/18 07:07:51;;;;;;;57.80;6.68;;;;;;;6.35;100.00;104165.81;5097972;28;20034;-74
2021/12/18 07:10:18;;;;;;;35.25;5.78;;;;;;;6.35;100.00;104165.81;5095675;28;20095;-72
2021/12/18 07:12:43;;;;;;;56.17;6.60;;;;;;;6.30;100.00;104166.19;5088235;28;20027;-73
2021/12/18 07:15:11;;;;;;;62.40;6.95;;;;;;;6.29;100.00;104165.25;5096243;28;20032;-74
2021/12/18 07:17:37;;;;;;;83.82;7.30;;;;;;;6.25;100.00;104168.38;5103182;28;20030;-73
2021/12/18 07:20:04;;;;;;;92.72;7.85;;;;;;;6.23;100.00;104169.97;5098678;28;20035;-73
2021/12/18 07:22:30;;;;;;;68.70;6.90;;;;;;;6.20;100.00;104169.69;5094485;28;20031;-74
2021/12/18 07:24:55;;;;;;;51.45;7.68;;;;;;;6.19;100.00;104167.88;5103827;28;20097;-73
2021/12/18 07:27:21;;;;;;;69.97;6.50;;;;;;;6.13;100.00;104172.53;5113809;28;20034;-78
2021/12/18 07:29:46;;;;;;;51.45;6.22;;;;;;;6.10;100.00;104172.28;5092522;28;20040;-73
2021/12/18 07:32:11;;;;;;;60.28;8.63;;;;;;;6.08;100.00;104167.81;5078531;28;20039;-74
2021/12/18 07:34:37;;;;;;;40.53;5.05;;;;;;;6.02;100.00;104164.69;5112807;28;20082;-74
2021/12/18 07:37:02;;;;;;;81.00;6.22;;;;;;;5.99;100.00;104172.22;5100163;28;20071;-82
2021/12/18 07:39:28;;;;;;;55.40;6.00;;;;;;;5.99;100.00;104174.84;5099520;28;20043;-74
2021/12/18 07:41:54;;;;;;;54.35;6.05;;;;;;;5.99;100.00;104172.22;5109260;28;20027;-74
2021/12/18 07:44:19;;;;;;;44.42;6.03;;;;;;;6.00;100.00;104171.47;5111358;28;20035;-75
2021/12/18 07:46:45;;;;;;;36.38;5.57;;;;;;;6.00;100.00;104173.16;5094430;28;20123;-74
2021/12/18 07:49:10;;;;;;;51.15;7.00;;;;;;;5.99;100.00;104174.84;5112692;28;20046;-74
2021/12/18 07:51:36;;;;;;;53.17;6.97;;;;;;;6.00;100.00;104171.47;5103412;28;20032;-74
2021/12/18 07:54:04;;;;;;;39.33;7.07;;;;;;;5.98;100.00;104177.31;5077466;28;20073;-74
2021/12/18 07:56:29;;;;;;;33.25;5.55;;;;;;;5.96;100.00;104179.78;5097027;28;20049;-74
2021/12/18 07:58:55;;;;;;;52.90;7.22;;;;;;;5.91;100.00;104170.59;5087533;28;20027;-74
2021/12/18 08:01:24;;;;;;;50.55;6.25;;;;;;;5.84;100.00;104178.69;5106158;28;20440;-74
2021/12/18 08:03:49;;;;;;;76.55;8.35;;;;;;;5.83;100.00;104176.84;5100154;28;20031;-74
2021/12/18 08:06:19;;;;;;;54.35;7.32;;;;;;;5.83;100.00;104171.59;5087121;28;20034;-74
2021/12/18 08:08:44;;;;;;;55.22;7.43;;;;;;;5.84;100.00;104169.13;5106111;28;20016;-74
2021/12/18 08:11:10;;;;;;;52.55;6.35;;;;;;;5.83;100.00;104174.22;5098354;28;20035;-75
2021/12/18 08:13:36;;;;;;;47.22;6.60;;;;;;;5.85;100.00;104175.28;5079653;28;20114;-75
2021/12/18 08:16:01;;;;;;;43.50;5.90;;;;;;;5.86;100.00;104174.50;5078048;28;20019;-73
2021/12/18 08:18:27;;;;;;;49.65;6.45;;;;;;;5.86;100.00;104171.88;5083660;28;20023;-73
2021/12/18 08:20:52;;;;;;;41.95;6.05;;;;;;;5.83;100.00;104177.78;5097331;28;20028;-73
2021/12/18 08:23:18;;;;;;;51.58;6.20;;;;;;;5.79;100.00;104179.94;5078022;28;20484;-73
2021/12/18 08:25:43;;;;;;;40.90;5.97;;;;;;;5.81;100.00;104183.63;5105081;28;20028;-73
2021/12/18 08:28:09;;;;;;;77.05;6.18;;;;;;;5.81;100.00;104188.88;5083015;28;20036;-73
2021/12/18 08:30:36;;;;;;;48.70;6.35;;;;;;;5.83;100.00;104192.50;5107548;28;20035;-73
2021/12/18 08:33:03;;;;;;;64.97;9.32;;;;;;;5.82;100.00;104188.06;5106006;28;20529;-73
2021/12/18 08:35:29;;;;;;;58.25;6.82;;;;;;;5.84;100.00;104195.25;5085382;28;20027;-74
2021/12/18 08:37:56;;;;;;;39.03;7.43;;;;;;;5.87;100.00;104187.72;5111734;28;20117;-74
2021/12/18 08:40:24;;;;;;;98.93;8.43;;;;;;;5.85;100.00;104193.59;5113730;28;20027;-74
2021/12/18 08:42:50;;;;;;;161.13;10.70;;;;;;;5.89;100.00;104193.09;5107670;28;20437;-72
2021/12/18 08:45:16;;;;;;;113.78;10.05;;;;;;;5.88;100.00;104191.25;5106030;28;20114;-72
2021/12/18 08:47:42;;;;;;;82.80;9.07;;;;;;;5.88;100.00;104191.25;5097792;28;20118;-73
2021/12/18 08:50:10;;;;;;;92.53;9.65;;;;;;;5.89;100.00;104187.84;5115101;28;20470;-75
2021/12/18 08:52:36;;;;;;;73.05;9.25;;;;;;;5.89;100.00;104193.09;5114580;28;20368;-73
2021/12/18 08:55:02;;;;;;;42.95;7.60;;;;;;;5.90;100.00;104184.44;5105709;28;20035;-73
2021/12/18 08:57:28;;;;;;;69.40;9.63;;;;;;;5.90;100.00;104190.59;5116462;28;20027;-72
2021/12/18 08:59:53;;;;;;;53.05;8.23;;;;;;;5.89;100.00;104190.47;5117239;28;20403;-74
2021/12/18 09:02:19;;;;;;;65.78;7.93;;;;;;;5.90;100.00;104190.59;5104244;28;20016;-74
2021/12/18 09:04:45;;;;;;;76.13;9.27;;;;;;;5.94;100.00;104191.81;5115205;28;20051;-74
2021/12/18 09:07:10;;;;;;;81.43;9.25;;;;;;;5.91;100.00;104191.50;5116385;28;20053;-74
2021/12/18 09:09:38;;;;;;;44.40;8.80;;;;;;;5.96;100.00;104185.00;5116265;28;20358;-75
2021/12/18 09:12:04;;;;;;;59.40;10.00;;;;;;;5.98;100.00;104183.50;5108849;28;20028;-75
2021/12/18 09:14:29;;;;;;;34.72;8.07;;;;;;;5.99;100.00;104187.91;5114331;28;20535;-74
2021/12/18 09:16:55;;;;;;;105.60;8.30;;;;;;;6.01;100.00;104183.75;5101993;28;20443;-74
2021/12/18 09:19:20;;;;;;;52.60;8.18;;;;;;;6.03;100.00;104186.50;5107303;28;20027;-74
2021/12/18 09:21:46;;;;;;;90.60;9.55;;;;;;;6.02;100.00;104185.59;5109651;27;20570;-74
2021/12/18 09:24:11;;;;;;;35.92;8.15;;;;;;;6.03;100.00;104186.50;5099202;28;20032;-74
2021/12/18 09:26:37;;;;;;;54.13;8.43;;;;;;;6.03;100.00;104184.78;5094827;28;20445;-76
2021/12/18 09:29:02;;;;;;;78.15;8.95;;;;;;;6.02;100.00;104180.38;5101016;28;20039;-77
2021/12/18 09:31:30;;;;;;;62.50;8.57;;;;;;;6.07;100.00;104183.38;5083736;28;20032;-80
2021/12/18 09:33:55;;;;;;;72.80;9.02;;;;;;;6.05;100.00;104184.94;5105533;28;20024;-82
2021/12/18 09:36:21;;;;;;;48.35;5.75;;;;;;;6.08;100.00;104185.22;5116078;28;20062;-80
2021/12/18 09:38:47;;;;;;;28.25;5.50;;;;;;;6.08;100.00;104182.59;5106176;28;20387;-80
2021/12/18 09:41:13;;;;;;;36.22;5.22;;;;;;;6.06;100.00;104185.09;5097347;28;20711;-78
2021/12/18 09:43:39;;;;;;;19.73;4.63;;;;;;;6.08;100.00;104187.84;5106936;28;20043;-79
2021/12/18 09:46:11;;;;;;;47.92;4.82;;;;;;;6.09;100.00;104176.59;5106887;28;20032;-78
2021/12/18 09:48:39;;;;;;;29.15;4.68;;;;;;;6.06;100.00;104177.25;5097467;28;20028;-78
2021/12/18 09:51:12;;;;;;;21.63;3.67;;;;;;;6.10;100.00;104181.03;5093776;28;20107;-78
2021/12/18 09:53:42;;;;;;;11.80;3.33;;;;;;;6.06;100.00;104177.25;5109940;28;20379;-80
2021/12/18 09:56:08;;;;;;;42.30;4.50;;;;;;;6.05;100.00;104174.47;5097757;28;20039;-79
2021/12/18 09:58:33;;;;;;;52.15;5.43;;;;;;;6.05;100.00;104171.84;5104471;28;20036;-79
2021/12/18 10:00:59;;;;;;;27.23;4.18;;;;;;;6.07;100.00;104171.22;5100764;28;20066;-78
2021/12/18 10:03:48;;;;;;;29.83;3.92;;;;;;;6.06;100.00;104168.47;5104334;28;20130;-78
2021/12/18 10:06:38;;;;;;;56.25;3.90;;;;;;;6.02;100.00;104175.16;5101540;28;20480;-79
2021/12/18 10:09:17;;;;;;;13.20;4.22;;;;;;;6.03;100.00;104166.50;5090497;28;20115;-71
2021/12/18 10:11:48;;;;;;;14.60;3.65;;;;;;;6.05;100.00;104167.56;5102154;28;20040;-71
2021/12/18 10:14:15;;;;;;;30.02;4.47;;;;;;;6.11;100.00;104161.06;5105505;28;20031;-72
2021/12/18 10:16:48;;;;;;;34.10;4.30;;;;;;;6.13;100.00;104164.69;5106374;28;20110;-72
2021/12/18 10:19:43;;;;;;;41.90;4.60;;;;;;;6.18;100.00;104166.03;5105065;28;20112;-74
2021/12/18 10:22:11;;;;;;;36.97;4.35;;;;;;;6.14;100.00;104174.38;5083224;28;20379;-72
2021/12/18 10:24:39;;;;;;;50.00;4.95;;;;;;;6.16;100.00;104173.75;5104565;28;20462;-72
2021/12/18 10:27:20;;;;;;;29.00;5.20;;;;;;;6.18;100.00;104171.25;5102108;28;20078;-72
2021/12/18 10:29:47;;;;;;;32.17;5.07;;;;;;;6.18;100.00;104169.53;5096047;28;20395;-72
2021/12/18 10:32:19;;;;;;;38.47;4.68;;;;;;;6.19;100.00;104167.88;5109426;28;20020;-72
2021/12/18 10:35:10;;;;;;;34.03;5.07;;;;;;;6.17;100.00;104169.41;5096377;28;20092;-73
2021/12/18 10:37:36;;;;;;;30.05;5.75;;;;;;;6.15;100.00;104176.22;5075542;28;20486;-72
2021/12/18 10:40:11;;;;;;;38.28;5.22;;;;;;;6.13;100.00;104172.53;5101269;28;20055;-72
2021/12/18 10:42:46;;;;;;;38.72;5.93;;;;;;;6.09;100.00;104176.59;5106355;28;20031;-72
2021/12/18 10:45:19;;;;;;;13.43;5.00;;;;;;;6.12;100.00;104182.09;5106027;28;20027;-71
2021/12/18 10:47:52;;;;;;;24.35;4.68;;;;;;;6.11;100.00;104169.78;5104076;28;20035;-72
2021/12/18 10:50:29;;;;;;;49.28;5.13;;;;;;;6.11;100.00;104171.50;5091354;28;21881;-72
2021/12/18 10:53:30;;;;;;;47.25;4.60;;;;;;;6.09;100.00;104174.00;5102855;28;20703;-70
2021/12/18 10:56:01;;;;;;;25.02;4.82;;;;;;;6.08;100.00;104167.81;5099156;28;20046;-71
2021/12/18 10:58:37;;;;;;;22.90;4.50;;;;;;;6.14;100.00;104175.28;5097994;28;20111;-71
2021/12/18 11:01:03;;;;;;;19.90;4.78;;;;;;;6.21;100.00;104171.53;5107325;28;20027;-71
2021/12/18 11:03:30;;;;;;;21.25;5.00;;;;;;;6.22;100.00;104166.41;5086896;28;20039;-71
2021/12/18 11:06:07;;;;;;;28.02;5.40;;;;;;;6.24;100.00;104161.34;5088442;28;20023;-70
2021/12/18 11:08:37;;;;;;;24.67;5.38;;;;;;;6.31;100.00;104166.34;5096902;28;20027;-72
2021/12/18 11:13:50;;;;;;;18.15;5.22;;;;;;;6.29;100.00;104167.88;5099418;28;20049;-75
2021/12/18 11:16:17;;;;;;;32.92;5.63;;;;;;;6.29;100.00;104157.41;5097235;28;20031;-74
2021/12/18 11:18:43;;;;;;;10.93;3.70;;;;;;;6.28;100.00;104157.28;5100498;28;20043;-73
2021/12/18 11:21:14;;;;;;;11.05;3.97;;;;;;;6.29;100.00;104154.81;5094329;28;20034;-73
2021/12/18 11:23:44;;;;;;;8.43;3.47;;;;;;;6.33;100.00;104151.66;5100813;28;20032;-74
2021/12/18 11:26:12;;;;;;;9.65;3.47;;;;;;;6.30;100.00;104159.25;5095784;28;20468;-75
2021/12/18 11:28:45;;;;;;;15.63;3.88;;;;;;;6.31;100.00;104152.31;5105529;28;20028;-75
2021/12/18 11:31:12;;;;;;;22.20;4.40;;;;;;;6.28;100.00;104150.38;5101552;28;20028;-74
2021/12/18 11:33:38;;;;;;;24.15;4.32;;;;;;;6.31;100.00;104153.25;5082180;28;20415;-74
2021/12/18 11:36:05;;;;;;;40.22;4.30;;;;;;;6.26;100.00;104149.31;5100530;28;20031;-74
2021/12/18 11:38:34;;;;;;;21.83;4.47;;;;;;;6.24;100.00;104141.34;5096968;28;20028;-72
2021/12/18 11:41:00;;;;;;;15.02;4.75;;;;;;;6.21;100.00;104140.13;5100054;28;20034;-75
2021/12/18 11:43:35;;;;;;;15.38;4.30;;;;;;;6.24;100.00;104143.06;5103220;28;20030;-74
2021/12/18 11:46:30;;;;;;;14.52;4.47;;;;;;;6.28;100.00;104132.06;5080937;28;20480;-73
2021/12/18 11:49:00;;;;;;;15.38;5.03;;;;;;;6.31;100.00;104137.56;5093794;28;20047;-73
2021/12/18 11:51:27;;;;;;;25.08;5.45;;;;;;;6.31;100.00;104137.56;5107146;28;20042;-74
2021/12/18 11:53:52;;;;;;;19.75;5.53;;;;;;;6.34;100.00;104132.59;5106476;28;20024;-75
2021/12/18 11:56:18;;;;;;;14.93;5.82;;;;;;;6.34;100.00;104127.34;5081765;28;20038;-74
2021/12/18 11:58:47;;;;;;;31.58;5.85;;;;;;;6.36;100.00;104130.09;5085606;28;20047;-74
2021/12/18 12:01:26;;;;;;;13.07;4.65;;;;;;;6.35;100.00;104118.72;5101059;28;20139;-74
2021/12/18 12:03:51;;;;;;;12.25;4.53;;;;;;;6.38;100.00;104128.56;5091268;28;20379;-75